sensor_id;sensor_type;location;lat;lon;timestamp;pressure;altitude;pressure_sealevel;temperature;humidity
30021;BME280;16861;52.294;7.760;2024-03-23T00:53:44;99123.56;;;10.35;72.42
30021;BME280;16861;52.294;7.760;2024-03-23T00:56:09;99112.00;;;10.37;72.47
30021;BME280;16861;52.294;7.760;2024-03-23T00:58:35;99110.19;;;10.38;72.72
30021;BME280;16861;52.294;7.760;2024-03-23T01:01:21;99109.56;;;10.34;73.06
30021;BME280;16861;52.294;7.760;2024-03-23T01:03:47;99104.81;;;10.39;72.71
30021;BME280;16861;52.294;7.760;2024-03-23T01:06:12;99102.09;;;10.41;72.86
30021;BME280;16861;52.294;7.760;2024-03-23T01:09:00;99107.56;;;10.38;73.00
30021;BME280;16861;52.294;7.760;2024-03-23T01:11:25;99109.13;;;10.40;73.05
30021;BME280;16861;52.294;7.760;2024-03-23T01:13:53;99100.41;;;10.40;72.95
30021;BME280;16861;52.294;7.760;2024-03-23T01:16:39;99090.94;;;10.37;73.22
30021;BME280;16861;52.294;7.760;2024-03-23T01:19:05;99084.53;;;10.41;73.24
30021;BME280;16861;52.294;7.760;2024-03-23T01:21:31;99088.00;;;10.42;73.18
30021;BME280;16861;52.294;7.760;2024-03-23T01:24:10;99085.59;;;10.39;73.29
30021;BME280;16861;52.294;7.760;2024-03-23T01:26:36;99087.81;;;10.45;73.12
30021;BME280;16861;52.294;7.760;2024-03-23T01:29:02;99085.25;;;10.43;72.76
30021;BME280;16861;52.294;7.760;2024-03-23T01:31:40;99088.09;;;10.40;73.00
30021;BME280;16861;52.294;7.760;2024-03-23T01:34:06;99086.22;;;10.42;73.16
30021;BME280;16861;52.294;7.760;2024-03-23T01:36:31;99092.31;;;10.43;72.96
30021;BME280;16861;52.294;7.760;2024-03-23T01:38:58;99089.66;;;10.43;73.23
30021;BME280;16861;52.294;7.760;2024-03-23T01:41:24;99088.78;;;10.44;73.18
30021;BME280;16861;52.294;7.760;2024-03-23T01:47:37;99074.66;;;10.45;73.06
30021;BME280;16861;52.294;7.760;2024-03-23T01:53:16;99059.84;;;10.44;73.12
30021;BME280;16861;52.294;7.760;2024-03-23T01:55:43;99073.00;;;10.44;73.13
30021;BME280;16861;52.294;7.760;2024-03-23T02:01:49;99055.47;;;10.43;72.92
30021;BME280;16861;52.294;7.760;2024-03-23T02:04:34;99049.78;;;10.36;73.39
30021;BME280;16861;52.294;7.760;2024-03-23T02:06:59;99046.94;;;10.39;73.12
30021;BME280;16861;52.294;7.760;2024-03-23T02:09:25;99053.16;;;10.38;73.18
30021;BME280;16861;52.294;7.760;2024-03-23T02:15:05;99050.84;;;10.34;72.76
30021;BME280;16861;52.294;7.760;2024-03-23T02:17:33;99047.47;;;10.32;72.91
30021;BME280;16861;52.294;7.760;2024-03-23T02:23:46;99044.31;;;10.26;72.60
30021;BME280;16861;52.294;7.760;2024-03-23T02:29:58;99035.88;;;10.21;72.52
30021;BME280;16861;52.294;7.760;2024-03-23T02:35:12;99030.19;;;10.14;72.29
30021;BME280;16861;52.294;7.760;2024-03-23T02:37:38;99022.72;;;10.08;72.28
30021;BME280;16861;52.294;7.760;2024-03-23T02:40:29;99029.31;;;10.01;72.17
30021;BME280;16861;52.294;7.760;2024-03-23T02:42:55;99033.66;;;10.02;72.49
30021;BME280;16861;52.294;7.760;2024-03-23T02:45:21;99018.91;;;9.99;72.45
30021;BME280;16861;52.294;7.760;2024-03-23T02:51:10;99036.78;;;9.94;72.27
30021;BME280;16861;52.294;7.760;2024-03-23T02:57:29;99019.94;;;9.84;72.00
30021;BME280;16861;52.294;7.760;2024-03-23T02:59:55;99013.00;;;9.83;72.39
30021;BME280;16861;52.294;7.760;2024-03-23T03:02:21;99004.34;;;9.81;72.28
30021;BME280;16861;52.294;7.760;2024-03-23T03:04:47;98998.38;;;9.78;72.49
30021;BME280;16861;52.294;7.760;2024-03-23T03:07:13;98992.34;;;9.76;72.51
30021;BME280;16861;52.294;7.760;2024-03-23T03:09:39;98989.00;;;9.74;72.50
30021;BME280;16861;52.294;7.760;2024-03-23T03:12:14;98974.38;;;9.70;72.58
30021;BME280;16861;52.294;7.760;2024-03-23T03:14:39;98979.44;;;9.73;72.64
30021;BME280;16861;52.294;7.760;2024-03-23T03:20:46;99014.34;;;9.75;72.44
30021;BME280;16861;52.294;7.760;2024-03-23T03:26:24;98998.97;;;9.69;72.39
30021;BME280;16861;52.294;7.760;2024-03-23T03:28:52;98989.50;;;9.67;72.65
30021;BME280;16861;52.294;7.760;2024-03-23T03:31:33;98987.19;;;9.62;72.87
30021;BME280;16861;52.294;7.760;2024-03-23T03:33:59;98978.25;;;9.64;72.60
30021;BME280;16861;52.294;7.760;2024-03-23T03:36:25;98977.53;;;9.62;72.52
30021;BME280;16861;52.294;7.760;2024-03-23T03:39:07;98988.41;;;9.56;72.85
30021;BME280;16861;52.294;7.760;2024-03-23T03:41:32;98985.69;;;9.58;72.58
30021;BME280;16861;52.294;7.760;2024-03-23T03:43:58;98990.19;;;9.56;72.59
30021;BME280;16861;52.294;7.760;2024-03-23T03:49:53;98998.38;;;9.51;72.65
30021;BME280;16861;52.294;7.760;2024-03-23T03:52:19;98989.88;;;9.47;72.98
30021;BME280;16861;52.294;7.760;2024-03-23T03:55:00;98983.22;;;9.42;73.47
30021;BME280;16861;52.294;7.760;2024-03-23T04:01:08;98977.88;;;9.43;73.06
30021;BME280;16861;52.294;7.760;2024-03-23T04:03:39;98972.81;;;9.40;73.42
30021;BME280;16861;52.294;7.760;2024-03-23T04:06:12;98968.59;;;9.37;73.55
30021;BME280;16861;52.294;7.760;2024-03-23T04:08:38;98971.97;;;9.39;73.42
30021;BME280;16861;52.294;7.760;2024-03-23T04:14:51;98975.44;;;9.40;73.31
30021;BME280;16861;52.294;7.760;2024-03-23T04:20:57;98973.75;;;9.39;73.32
30021;BME280;16861;52.294;7.760;2024-03-23T04:27:03;98960.72;;;9.37;72.94
30021;BME280;16861;52.294;7.760;2024-03-23T04:29:36;98964.50;;;9.33;73.69
30021;BME280;16861;52.294;7.760;2024-03-23T04:32:02;98959.97;;;9.35;73.45
30021;BME280;16861;52.294;7.760;2024-03-23T04:34:27;98957.44;;;9.34;73.03
30021;BME280;16861;52.294;7.760;2024-03-23T04:37:11;98956.81;;;9.30;73.73
30021;BME280;16861;52.294;7.760;2024-03-23T04:39:36;98961.78;;;9.35;73.53
30021;BME280;16861;52.294;7.760;2024-03-23T04:42:03;98958.28;;;9.34;73.27
30021;BME280;16861;52.294;7.760;2024-03-23T04:47:42;98957.56;;;9.32;73.15
30021;BME280;16861;52.294;7.760;2024-03-23T04:50:08;98950.72;;;9.30;72.83
30021;BME280;16861;52.294;7.760;2024-03-23T04:59:40;98947.31;;;9.15;72.91
30021;BME280;16861;52.294;7.760;2024-03-23T05:02:06;98948.31;;;9.12;72.13
30021;BME280;16861;52.294;7.760;2024-03-23T05:07:33;98941.44;;;8.96;72.61
30021;BME280;16861;52.294;7.760;2024-03-23T05:09:59;98947.19;;;8.89;72.92
30021;BME280;16861;52.294;7.760;2024-03-23T05:19:29;98954.03;;;8.77;73.56
30021;BME280;16861;52.294;7.760;2024-03-23T05:21:55;98953.28;;;8.75;73.67
30021;BME280;16861;52.294;7.760;2024-03-23T05:24:44;98948.31;;;8.70;74.57
30021;BME280;16861;52.294;7.760;2024-03-23T05:27:10;98954.97;;;8.76;74.06
30021;BME280;16861;52.294;7.760;2024-03-23T05:29:35;98953.28;;;8.75;74.39
30021;BME280;16861;52.294;7.760;2024-03-23T05:32:09;98954.25;;;8.73;74.84
30021;BME280;16861;52.294;7.760;2024-03-23T05:34:35;98947.84;;;8.78;74.25
30021;BME280;16861;52.294;7.760;2024-03-23T05:37:01;98946.91;;;8.79;74.16
30021;BME280;16861;52.294;7.760;2024-03-23T05:42:30;98945.97;;;8.80;74.32
30021;BME280;16861;52.294;7.760;2024-03-23T05:44:56;98942.41;;;8.81;74.34
30021;BME280;16861;52.294;7.760;2024-03-23T05:51:09;98939.78;;;8.81;74.20
30021;BME280;16861;52.294;7.760;2024-03-23T05:53:59;98942.69;;;8.76;74.59
30021;BME280;16861;52.294;7.760;2024-03-23T05:59:37;98942.50;;;8.79;74.48
30021;BME280;16861;52.294;7.760;2024-03-23T06:02:03;98934.75;;;8.78;74.33
30021;BME280;16861;52.294;7.760;2024-03-23T06:04:30;98950.47;;;8.78;74.45
30021;BME280;16861;52.294;7.760;2024-03-23T06:06:56;98939.03;;;8.79;74.65
30021;BME280;16861;52.294;7.760;2024-03-23T06:09:23;98938.19;;;8.78;74.43
30021;BME280;16861;52.294;7.760;2024-03-23T06:11:56;98938.28;;;8.77;74.67
30021;BME280;16861;52.294;7.760;2024-03-23T06:14:21;98940.72;;;8.80;74.63
30021;BME280;16861;52.294;7.760;2024-03-23T06:17:06;98937.44;;;8.76;74.96
30021;BME280;16861;52.294;7.760;2024-03-23T06:19:32;98936.31;;;8.80;74.39
30021;BME280;16861;52.294;7.760;2024-03-23T06:25:45;98952.88;;;8.81;74.49
30021;BME280;16861;52.294;7.760;2024-03-23T06:31:15;98948.41;;;8.83;74.81
30021;BME280;16861;52.294;7.760;2024-03-23T06:33:41;98948.41;;;8.83;74.98
30021;BME280;16861;52.294;7.760;2024-03-23T12:11:53;98904.66;;;16.87;51.74
30021;BME280;16861;52.294;7.760;2024-03-23T12:14:18;98898.25;;;16.23;51.23
30021;BME280;16861;52.294;7.760;2024-03-23T12:16:44;98913.88;;;15.59;51.07
30021;BME280;16861;52.294;7.760;2024-03-23T12:22:35;98923.66;;;14.05;51.96
30021;BME280;16861;52.294;7.760;2024-03-23T12:25:01;98906.41;;;13.47;52.57
30021;BME280;16861;52.294;7.760;2024-03-23T12:31:14;98885.91;;;12.28;55.23
30021;BME280;16861;52.294;7.760;2024-03-23T21:48:03;98719.16;;;6.38;65.84
30021;BME280;16861;52.294;7.760;2024-03-23T21:50:31;98716.47;;;6.39;64.89
30021;BME280;16861;52.294;7.760;2024-03-23T21:53:09;98712.34;;;6.35;65.90
30021;BME280;16861;52.294;7.760;2024-03-23T21:58:41;98704.50;;;6.35;64.48
30021;BME280;16861;52.294;7.760;2024-03-23T22:01:07;98702.91;;;6.33;64.97
30021;BME280;16861;52.294;7.760;2024-03-23T22:04:00;98710.97;;;6.28;66.65
30021;BME280;16861;52.294;7.760;2024-03-23T22:06:25;98704.78;;;6.31;65.91
30021;BME280;16861;52.294;7.760;2024-03-23T22:08:51;98705.59;;;6.31;65.77
30021;BME280;16861;52.294;7.760;2024-03-23T22:11:18;98707.28;;;6.32;66.14
30021;BME280;16861;52.294;7.760;2024-03-23T22:13:44;98702.16;;;6.31;65.66
30021;BME280;16861;52.294;7.760;2024-03-23T22:16:10;98700.44;;;6.30;66.07
30021;BME280;16861;52.294;7.760;2024-03-23T22:21:59;98697.91;;;6.28;66.31
30021;BME280;16861;52.294;7.760;2024-03-23T22:24:32;98703.34;;;6.25;67.47
30021;BME280;16861;52.294;7.760;2024-03-23T22:26:57;98700.66;;;6.27;68.46
30021;BME280;16861;52.294;7.760;2024-03-23T22:29:38;98695.41;;;6.27;68.14
30021;BME280;16861;52.294;7.760;2024-03-23T22:32:04;98690.94;;;6.29;66.54
30021;BME280;16861;52.294;7.760;2024-03-23T22:34:29;98699.63;;;6.29;66.49
30021;BME280;16861;52.294;7.760;2024-03-23T22:37:23;98693.63;;;6.27;68.24
30021;BME280;16861;52.294;7.760;2024-03-23T22:39:49;98691.59;;;6.32;67.23
30021;BME280;16861;52.294;7.760;2024-03-23T22:42:15;98683.75;;;6.32;66.87
30021;BME280;16861;52.294;7.760;2024-03-23T22:51:51;98680.81;;;6.38;66.81
30021;BME280;16861;52.294;7.760;2024-03-23T22:54:17;98678.94;;;6.41;66.83
30021;BME280;16861;52.294;7.760;2024-03-23T22:56:43;98664.19;;;6.39;66.69
30021;BME280;16861;52.294;7.760;2024-03-23T23:02:03;98665.03;;;6.40;66.70
30021;BME280;16861;52.294;7.760;2024-03-23T23:04:28;98659.81;;;6.40;66.39
30021;BME280;16861;52.294;7.760;2024-03-23T23:07:16;98655.69;;;6.36;67.81
30021;BME280;16861;52.294;7.760;2024-03-23T23:09:42;98651.09;;;6.39;66.35
30021;BME280;16861;52.294;7.760;2024-03-23T23:12:07;98637.19;;;6.39;66.08
30021;BME280;16861;52.294;7.760;2024-03-23T23:14:50;98643.44;;;6.36;67.43
30021;BME280;16861;52.294;7.760;2024-03-23T23:17:16;98634.50;;;6.41;66.10
30021;BME280;16861;52.294;7.760;2024-03-23T23:20:06;98635.69;;;6.35;67.13
30021;BME280;16861;52.294;7.760;2024-03-23T23:22:35;98632.91;;;6.38;65.96
30021;BME280;16861;52.294;7.760;2024-03-23T23:25:35;98635.97;;;6.30;67.19
30021;BME280;16861;52.294;7.760;2024-03-23T23:28:11;98621.31;;;6.28;66.97
30021;BME280;16861;52.294;7.760;2024-03-23T23:30:37;98616.06;;;6.28;66.16
30021;BME280;16861;52.294;7.760;2024-03-23T23:33:04;98611.09;;;6.23;67.14
30021;BME280;16861;52.294;7.760;2024-03-23T23:35:30;98612.13;;;6.20;66.54
30021;BME280;16861;52.294;7.760;2024-03-23T23:38:20;98604.72;;;6.12;68.96
30021;BME280;16861;52.294;7.760;2024-03-23T23:43:59;98599.59;;;6.11;66.42
30021;BME280;16861;52.294;7.760;2024-03-23T23:46:38;98597.22;;;6.06;67.48
30021;BME280;16861;52.294;7.760;2024-03-23T23:49:04;98583.44;;;6.04;66.63
30021;BME280;16861;52.294;7.760;2024-03-23T23:51:49;98595.81;;;6.00;68.43
30021;BME280;16861;52.294;7.760;2024-03-23T23:54:14;98585.19;;;6.04;67.12
30021;BME280;16861;52.294;7.760;2024-03-23T23:56:50;98595.69;;;6.02;68.36
30021;BME280;16861;52.294;7.760;2024-03-23T23:59:17;98574.66;;;6.05;67.18
